createdAt,value
2023-03-02T00:00:10.834Z,101989.59
2023-03-02T00:01:44.190Z,102000.84
2023-03-02T00:03:18.141Z,101994.75
2023-03-02T00:04:51.453Z,102001.69
2023-03-02T00:06:23.340Z,101995.59
2023-03-02T00:07:55.203Z,101995.56
2023-03-02T00:09:28.674Z,101999.03
2023-03-02T00:11:02.228Z,101996.44
2023-03-02T00:12:35.215Z,101991.22
2023-03-02T00:14:06.872Z,101993.00
2023-03-02T00:15:38.463Z,101996.50
2023-03-02T00:17:11.608Z,101999.13
2023-03-02T00:18:43.211Z,101996.53
2023-03-02T00:20:14.875Z,101996.56
2023-03-02T00:21:47.043Z,101996.56
2023-03-02T00:23:19.051Z,101992.22
2023-03-02T00:24:50.598Z,101994.84
2023-03-02T00:26:23.864Z,101988.81
2023-03-02T00:27:57.503Z,101984.50
2023-03-02T00:29:30.159Z,101978.44
2023-03-02T00:31:04.473Z,101982.81
2023-03-02T00:32:36.218Z,101982.78
2023-03-02T00:34:08.353Z,101982.81
2023-03-02T00:35:40.941Z,101988.91
2023-03-02T00:37:12.688Z,101983.72
2023-03-02T00:38:44.513Z,101978.50
2023-03-02T00:40:16.274Z,101993.28
2023-03-02T00:41:49.728Z,101991.56
2023-03-02T00:43:27.213Z,101991.56
2023-03-02T00:45:01.467Z,101994.19
2023-03-02T00:46:33.324Z,101992.44
2023-03-02T00:48:05.172Z,101981.16
2023-03-02T00:49:37.381Z,101994.19
2023-03-02T00:51:09.354Z,101982.03
2023-03-02T00:52:41.258Z,101984.63
2023-03-02T00:54:13.297Z,101974.19
2023-03-02T00:55:52.501Z,101971.59
2023-03-02T00:57:25.927Z,101985.44
2023-03-02T00:59:04.806Z,101981.06
2023-03-02T01:00:37.386Z,101978.44
2023-03-02T01:02:11.821Z,101976.69
2023-03-02T01:03:43.492Z,101981.88
2023-03-02T01:05:16.073Z,101980.97
2023-03-02T01:06:48.018Z,101971.44
2023-03-02T01:08:20.303Z,101966.22
2023-03-02T01:09:52.358Z,101973.13
2023-03-02T01:11:24.425Z,101970.50
2023-03-02T01:12:57.536Z,101963.59
2023-03-02T01:14:29.377Z,101959.25
2023-03-02T01:16:01.211Z,101965.34
2023-03-02T01:17:32.829Z,101965.38
2023-03-02T01:19:04.560Z,101964.53
2023-03-02T01:20:36.128Z,101968.88
2023-03-02T01:22:08.270Z,101957.59
2023-03-02T01:23:40.034Z,101955.84
2023-03-02T01:25:13.176Z,101959.34
2023-03-02T01:26:45.198Z,101956.75
2023-03-02T01:28:18.126Z,101961.09
2023-03-02T01:29:50.773Z,101956.75
2023-03-02T01:31:22.378Z,101961.13
2023-03-02T01:32:54.076Z,101955.03
2023-03-02T01:34:26.283Z,101948.09
2023-03-02T01:35:58.219Z,101949.81
2023-03-02T01:37:29.861Z,101948.97
2023-03-02T01:39:01.561Z,101948.09
2023-03-02T01:40:33.820Z,101942.00
2023-03-02T01:42:05.730Z,101941.13
2023-03-02T01:43:38.660Z,101938.53
2023-03-02T01:45:25.127Z,101935.91
2023-03-02T01:46:56.793Z,101928.97
2023-03-02T01:48:30.613Z,101929.81
2023-03-02T01:50:04.050Z,101936.75
2023-03-02T01:51:43.498Z,101928.94
2023-03-02T01:53:16.195Z,101924.53
2023-03-02T01:54:49.868Z,101930.53
2023-03-02T01:56:23.786Z,101931.31
2023-03-02T01:57:58.748Z,101923.38
2023-03-02T01:59:33.496Z,101932.03
2023-03-02T02:01:06.633Z,101931.97
2023-03-02T02:02:42.584Z,101928.47
2023-03-02T02:04:14.821Z,101922.38
2023-03-02T02:05:51.325Z,101931.00
2023-03-02T02:07:23.017Z,101926.56
2023-03-02T02:08:56.384Z,101924.84
2023-03-02T02:10:30.112Z,101930.03
2023-03-02T02:12:02.074Z,101924.78
2023-03-02T02:13:33.753Z,101924.69
2023-03-02T02:15:08.196Z,101922.94
2023-03-02T02:16:40.481Z,101915.94
2023-03-02T02:18:12.233Z,101918.50
2023-03-02T02:19:49.631Z,101922.81
2023-03-02T02:21:22.124Z,101926.19
2023-03-02T02:23:00.555Z,101924.44
2023-03-02T02:24:37.684Z,101922.72
2023-03-02T02:26:22.226Z,101918.34
2023-03-02T02:27:54.322Z,101922.63
2023-03-02T02:29:30.324Z,101927.69
2023-03-02T02:31:05.986Z,101922.47
2023-03-02T02:32:39.027Z,101926.75
2023-03-02T02:34:13.221Z,101923.22
2023-03-02T02:35:45.811Z,101929.22
2023-03-02T02:37:20.368Z,101927.44
2023-03-02T02:38:54.637Z,101924.81
2023-03-02T02:40:40.270Z,101915.31
2023-03-02T02:42:16.794Z,101920.59
2023-03-02T02:43:50.424Z,101913.72
2023-03-02T02:45:23.007Z,101911.97
2023-03-02T02:46:54.793Z,101922.41
2023-03-02T02:48:31.023Z,101917.19
2023-03-02T02:50:02.648Z,101913.78
2023-03-02T02:51:34.562Z,101915.50
2023-03-02T02:53:11.106Z,101914.66
2023-03-02T02:54:44.477Z,101912.91
2023-03-02T02:56:17.128Z,101910.25
2023-03-02T02:57:51.092Z,101899.84
2023-03-02T02:59:24.283Z,101906.75
2023-03-02T03:00:55.963Z,101911.97
2023-03-02T03:02:28.356Z,101910.25
2023-03-02T03:04:02.113Z,101909.44
2023-03-02T03:05:33.778Z,101908.59
2023-03-02T03:07:06.168Z,101905.13
2023-03-02T03:08:56.014Z,101907.72
2023-03-02T03:10:44.215Z,101903.44
2023-03-02T03:12:17.444Z,101909.56
2023-03-02T03:13:52.139Z,101903.53
2023-03-02T03:15:23.757Z,101905.28
2023-03-02T03:16:55.473Z,101901.84
2023-03-02T03:18:29.199Z,101903.59
2023-03-02T03:20:06.499Z,101903.63
2023-03-02T03:21:41.145Z,101904.44
2023-03-02T03:23:12.914Z,101891.34
2023-03-02T03:24:45.320Z,101900.00
2023-03-02T03:26:17.124Z,101893.03
2023-03-02T03:27:50.040Z,101895.59
2023-03-02T03:29:25.050Z,101896.44
2023-03-02T03:30:58.617Z,101899.00
2023-03-02T03:32:30.342Z,101893.81
2023-03-02T03:34:02.405Z,101910.31
2023-03-02T03:35:38.178Z,101894.75
2023-03-02T03:37:10.961Z,101904.38
2023-03-02T03:38:42.753Z,101900.97
2023-03-02T03:40:15.046Z,101896.66
2023-03-02T03:41:48.700Z,101893.22
2023-03-02T03:43:20.496Z,101903.59
2023-03-02T03:44:57.934Z,101898.34
2023-03-02T03:46:30.284Z,101902.69
2023-03-02T03:48:02.051Z,101898.38
2023-03-02T03:49:33.943Z,101900.97
2023-03-02T03:51:05.800Z,101895.81
2023-03-02T03:52:38.833Z,101895.88
2023-03-02T03:54:21.547Z,101901.03
2023-03-02T03:55:53.402Z,101907.94
2023-03-02T03:57:25.237Z,101896.63
2023-03-02T03:59:07.066Z,101908.78
2023-03-02T04:00:45.499Z,101905.25
2023-03-02T04:02:17.681Z,101907.78
2023-03-02T04:03:49.255Z,101904.34
2023-03-02T04:05:21.225Z,101906.06
2023-03-02T04:06:56.297Z,101900.88
2023-03-02T04:08:28.453Z,101895.69
2023-03-02T04:10:03.706Z,101900.03
2023-03-02T04:11:39.369Z,101905.25
2023-03-02T04:13:11.055Z,101897.41
2023-03-02T04:14:42.593Z,101908.66
2023-03-02T04:16:15.529Z,101906.91
2023-03-02T04:17:47.510Z,101904.25
2023-03-02T04:19:21.962Z,101902.53
2023-03-02T04:20:56.046Z,101904.28
2023-03-02T04:22:27.873Z,101906.00
2023-03-02T04:23:59.599Z,101911.16
2023-03-02T04:25:32.558Z,101906.81
2023-03-02T04:27:12.854Z,101911.19
2023-03-02T04:28:45.031Z,101900.78
2023-03-02T04:30:17.166Z,101899.91
2023-03-02T04:31:50.482Z,101897.31
2023-03-02T04:33:23.274Z,101903.31
2023-03-02T04:34:54.969Z,101902.34
2023-03-02T04:36:26.938Z,101898.81
2023-03-02T04:37:59.051Z,101895.22
2023-03-02T04:39:31.164Z,101903.88
2023-03-02T04:41:04.083Z,101894.28
2023-03-02T04:42:35.904Z,101891.69
2023-03-02T04:44:07.504Z,101896.78
2023-03-02T04:45:39.835Z,101894.16
2023-03-02T04:47:12.860Z,101891.53
2023-03-02T04:48:44.575Z,101898.47
2023-03-02T04:50:16.309Z,101896.75
2023-03-02T04:51:49.237Z,101900.22
2023-03-02T04:53:20.846Z,101898.47
2023-03-02T04:54:52.398Z,101893.25
2023-03-02T04:56:23.988Z,101892.28
2023-03-02T04:57:55.545Z,101893.94
2023-03-02T04:59:27.788Z,101894.81
2023-03-02T05:01:02.284Z,101892.16
2023-03-02T05:02:35.337Z,101889.56
2023-03-02T05:04:07.506Z,101886.16
2023-03-02T05:05:39.178Z,101886.19
2023-03-02T05:07:10.893Z,101881.03
2023-03-02T05:08:42.500Z,101888.00
2023-03-02T05:10:15.049Z,101892.38
2023-03-02T05:11:46.858Z,101885.50
2023-03-02T05:13:18.406Z,101884.69
2023-03-02T05:14:49.976Z,101887.31
2023-03-02T05:16:21.946Z,101894.28
2023-03-02T05:17:55.210Z,101894.31
2023-03-02T05:19:29.507Z,101886.53
2023-03-02T05:21:01.089Z,101879.59
2023-03-02T05:22:32.653Z,101879.50
2023-03-02T05:24:04.385Z,101887.28
2023-03-02T05:25:37.705Z,101879.44
2023-03-02T05:27:09.349Z,101879.44
2023-03-02T05:28:41.214Z,101880.28
2023-03-02T05:30:13.729Z,101875.91
2023-03-02T05:31:46.226Z,101883.63
2023-03-02T05:33:21.280Z,101884.50
2023-03-02T05:34:52.889Z,101885.41
2023-03-02T05:36:24.481Z,101897.63
2023-03-02T05:37:56.046Z,101890.72
2023-03-02T05:39:28.292Z,101889.09
2023-03-02T05:40:59.918Z,101888.28
2023-03-02T05:42:32.103Z,101885.81
2023-03-02T05:44:04.268Z,101890.22
2023-03-02T05:45:37.900Z,101894.66
2023-03-02T05:47:09.973Z,101887.72
2023-03-02T05:48:43.008Z,101888.56
2023-03-02T05:50:14.629Z,101889.47
2023-03-02T05:51:46.497Z,101893.00
2023-03-02T05:53:18.222Z,101895.63
2023-03-02T05:54:49.927Z,101890.50
2023-03-02T05:56:22.523Z,101893.09
2023-03-02T05:57:54.659Z,101895.69
2023-03-02T05:59:26.252Z,101886.16
2023-03-02T06:00:57.924Z,101890.53
2023-03-02T06:02:29.960Z,101882.75
2023-03-02T06:04:03.292Z,101889.69
2023-03-02T06:05:37.845Z,101887.09
2023-03-02T06:07:11.180Z,101890.56
2023-03-02T06:08:43.319Z,101888.84
2023-03-02T06:10:15.076Z,101894.94
2023-03-02T06:11:46.585Z,101886.28
2023-03-02T06:13:18.123Z,101893.28
2023-03-02T06:14:49.715Z,101889.84
2023-03-02T06:16:21.923Z,101894.19
2023-03-02T06:17:53.553Z,101889.00
2023-03-02T06:19:26.828Z,101892.50
2023-03-02T06:20:59.746Z,101887.31
2023-03-02T06:22:31.602Z,101898.53
2023-03-02T06:24:03.373Z,101893.31
2023-03-02T06:25:36.931Z,101893.28
2023-03-02T06:27:08.524Z,101893.28
2023-03-02T06:28:52.065Z,101897.63
2023-03-02T06:30:25.789Z,101896.78
2023-03-02T06:31:57.474Z,101893.31
2023-03-02T06:33:30.477Z,101892.47
2023-03-02T06:35:05.956Z,101894.25
2023-03-02T06:36:40.404Z,101896.84
2023-03-02T06:38:12.002Z,101896.88
2023-03-02T06:39:43.607Z,101892.53
2023-03-02T06:41:17.548Z,101893.41
2023-03-02T06:42:49.037Z,101896.03
2023-03-02T06:44:20.738Z,101901.22
2023-03-02T06:45:52.569Z,101899.53
2023-03-02T06:47:24.505Z,101901.25
2023-03-02T06:48:56.176Z,101901.25
2023-03-02T06:50:29.927Z,101898.69
2023-03-02T06:52:02.591Z,101906.50
2023-03-02T06:53:34.518Z,101900.44
2023-03-02T06:55:06.728Z,101897.88
2023-03-02T06:56:41.032Z,101907.41
2023-03-02T06:58:13.212Z,101908.28
2023-03-02T06:59:44.965Z,101901.34
2023-03-02T07:01:17.380Z,101903.00
2023-03-02T07:02:50.095Z,101896.84
2023-03-02T07:04:21.780Z,101904.66
2023-03-02T07:05:54.863Z,101901.19
2023-03-02T07:07:27.787Z,101906.38
2023-03-02T07:08:59.493Z,101895.09
2023-03-02T07:10:31.345Z,101904.66
2023-03-02T07:12:03.093Z,101900.31
2023-03-02T07:13:34.856Z,101903.75
2023-03-02T07:15:12.020Z,101906.31
2023-03-02T07:16:43.778Z,101901.97
2023-03-02T07:18:15.549Z,101908.09
2023-03-02T07:19:47.549Z,101902.91
2023-03-02T07:21:20.541Z,101912.41
2023-03-02T07:22:52.128Z,101904.59
2023-03-02T07:24:23.747Z,101905.50
2023-03-02T07:25:55.346Z,101904.72
2023-03-02T07:27:27.836Z,101898.75
2023-03-02T07:28:59.460Z,101902.31
2023-03-02T07:30:33.613Z,101901.44
2023-03-02T07:32:06.859Z,101906.66
2023-03-02T07:33:39.172Z,101903.19
2023-03-02T07:35:10.846Z,101904.06
2023-03-02T07:36:44.173Z,101904.91
2023-03-02T07:38:15.856Z,101904.09
2023-03-02T07:39:47.651Z,101909.31
2023-03-02T07:41:19.337Z,101909.31
2023-03-02T07:42:50.873Z,101903.28
2023-03-02T07:44:23.326Z,101904.19
2023-03-02T07:45:55.221Z,101903.38
2023-03-02T07:47:26.823Z,101896.44
2023-03-02T07:48:59.201Z,101907.78
2023-03-02T07:50:30.804Z,101911.28
2023-03-02T07:52:06.156Z,101915.69
2023-03-02T07:53:37.902Z,101911.38
2023-03-02T07:55:09.975Z,101913.16
2023-03-02T07:56:41.621Z,101912.31
2023-03-02T07:58:13.240Z,101915.78
2023-03-02T07:59:44.938Z,101912.31
2023-03-02T08:01:16.577Z,101911.41
2023-03-02T08:02:48.231Z,101913.19
2023-03-02T08:04:19.815Z,101921.88
2023-03-02T08:05:51.531Z,101920.19
2023-03-02T08:07:24.961Z,101920.22
2023-03-02T08:08:56.740Z,101928.91
2023-03-02T08:10:28.420Z,101920.25
2023-03-02T08:12:00.561Z,101922.03
2023-03-02T08:13:33.180Z,101913.41
2023-03-02T08:15:06.758Z,101921.22
2023-03-02T08:16:40.395Z,101922.13
2023-03-02T08:18:12.085Z,101916.09
2023-03-02T08:19:43.669Z,101916.09
2023-03-02T08:21:16.472Z,101928.28
2023-03-02T08:22:51.752Z,101913.53
2023-03-02T08:24:23.363Z,101910.06
2023-03-02T08:25:55.063Z,101918.81
2023-03-02T08:27:26.775Z,101911.00
2023-03-02T08:28:58.520Z,101911.84
2023-03-02T08:30:30.094Z,101913.59
2023-03-02T08:32:02.005Z,101916.22
2023-03-02T08:33:36.465Z,101921.44
2023-03-02T08:35:08.821Z,101921.44
2023-03-02T08:36:42.066Z,101918.84
2023-03-02T08:38:16.341Z,101918.88
2023-03-02T08:39:48.554Z,101913.69
2023-03-02T08:41:21.241Z,101911.13
2023-03-02T08:42:57.063Z,101911.13
2023-03-02T08:44:28.592Z,101913.78
2023-03-02T08:46:00.408Z,101903.34
2023-03-02T08:47:32.612Z,101908.59
2023-03-02T08:49:04.193Z,101908.56
2023-03-02T08:50:35.970Z,101910.34
2023-03-02T08:52:07.852Z,101898.16
2023-03-02T08:53:41.971Z,101903.38
2023-03-02T08:55:14.057Z,101899.91
2023-03-02T08:56:45.721Z,101900.78
2023-03-02T08:58:17.441Z,101895.53
2023-03-02T08:59:49.620Z,101895.56
2023-03-02T09:01:22.382Z,101899.03
2023-03-02T09:02:54.297Z,101901.69
2023-03-02T09:04:26.050Z,101900.78
2023-03-02T09:05:57.900Z,101893.84
2023-03-02T09:07:30.578Z,101899.06
2023-03-02T09:09:04.963Z,101897.34
2023-03-02T09:10:36.955Z,101893.84
2023-03-02T09:12:08.530Z,101893.00
2023-03-02T09:13:40.915Z,101890.38
2023-03-02T09:15:12.538Z,101892.09
2023-03-02T09:16:45.676Z,101887.72
2023-03-02T09:18:17.259Z,101888.53
2023-03-02T09:19:49.001Z,101878.91
2023-03-02T09:21:21.150Z,101884.13
2023-03-02T09:22:52.731Z,101884.16
2023-03-02T09:24:25.703Z,101871.97
2023-03-02T09:25:57.375Z,101877.19
2023-03-02T09:27:29.432Z,101878.03
2023-03-02T09:29:01.143Z,101878.88
2023-03-02T09:30:32.876Z,101871.00
2023-03-02T09:32:04.941Z,101869.19
2023-03-02T09:33:36.826Z,101867.44
2023-03-02T09:35:08.747Z,101869.16
2023-03-02T09:36:40.336Z,101878.72
2023-03-02T09:38:15.969Z,101874.34
2023-03-02T09:39:49.146Z,101871.75
2023-03-02T09:41:38.349Z,101871.72
2023-03-02T09:43:19.521Z,101865.56
2023-03-02T09:45:08.950Z,101875.97
2023-03-02T09:46:44.650Z,101869.03
2023-03-02T09:48:21.511Z,101874.25
2023-03-02T09:50:00.109Z,101874.16
2023-03-02T09:51:34.004Z,101867.13
2023-03-02T09:53:23.474Z,101872.41
2023-03-02T09:54:57.355Z,101871.53
2023-03-02T09:56:32.192Z,101870.63
2023-03-02T09:58:05.882Z,101870.63
2023-03-02T09:59:42.744Z,101882.84
2023-03-02T10:01:17.702Z,101869.75
2023-03-02T10:02:50.690Z,101869.75
2023-03-02T10:04:24.261Z,101872.38
2023-03-02T10:05:56.210Z,101866.25
2023-03-02T10:07:29.090Z,101871.41
2023-03-02T10:09:03.552Z,101863.44
2023-03-02T10:10:40.153Z,101876.50
2023-03-02T10:12:23.333Z,101878.25
2023-03-02T10:13:58.513Z,101865.16
2023-03-02T10:15:37.441Z,101867.81
2023-03-02T10:17:22.936Z,101873.03
2023-03-02T10:19:02.754Z,101872.16
2023-03-02T10:20:37.964Z,101872.16
2023-03-02T10:22:13.161Z,101871.19
2023-03-02T10:23:46.154Z,101859.88
2023-03-02T10:25:23.454Z,101860.75
2023-03-02T10:26:58.697Z,101858.13
2023-03-02T10:28:32.689Z,101860.72
2023-03-02T10:30:08.013Z,101858.94
2023-03-02T10:31:40.969Z,101859.78
2023-03-02T10:33:15.107Z,101858.03
2023-03-02T10:34:48.102Z,101849.28
2023-03-02T10:36:23.397Z,101846.59
2023-03-02T10:37:57.442Z,101850.13
2023-03-02T10:39:29.229Z,101845.78
2023-03-02T10:41:02.274Z,101848.34
2023-03-02T10:42:37.430Z,101849.16
2023-03-02T10:44:15.059Z,101843.03
2023-03-02T10:45:57.801Z,101847.41
2023-03-02T10:47:30.034Z,101843.78
2023-03-02T10:49:01.721Z,101844.53
2023-03-02T10:50:33.452Z,101837.50
2023-03-02T10:52:06.402Z,101839.22
2023-03-02T10:53:38.061Z,101833.16
2023-03-02T10:55:13.504Z,101842.00
2023-03-02T10:56:49.686Z,101837.63
2023-03-02T10:58:25.865Z,101837.59
2023-03-02T10:59:59.903Z,101837.50
2023-03-02T11:01:31.597Z,101836.56
2023-03-02T11:03:04.911Z,101833.03
2023-03-02T11:04:36.689Z,101829.56
2023-03-02T11:06:16.713Z,101839.91
2023-03-02T11:07:55.102Z,101834.75
2023-03-02T11:09:28.020Z,101837.38
2023-03-02T11:11:01.447Z,101835.56
2023-03-02T11:12:36.274Z,101835.41
2023-03-02T11:14:14.033Z,101825.78
2023-03-02T11:15:47.223Z,101834.63
2023-03-02T11:17:29.838Z,101840.69
2023-03-02T11:19:03.449Z,101835.50
2023-03-02T11:20:38.518Z,101825.81
2023-03-02T11:22:16.738Z,101819.66
2023-03-02T11:23:54.431Z,101824.06
2023-03-02T11:25:29.421Z,101819.59
2023-03-02T11:27:03.479Z,101823.00
2023-03-02T11:28:39.362Z,101830.75
2023-03-02T11:30:15.918Z,101821.88
2023-03-02T11:31:49.911Z,101821.88
2023-03-02T11:33:24.677Z,101819.25
2023-03-02T11:34:58.049Z,101821.81
2023-03-02T11:36:35.770Z,101826.19
2023-03-02T11:38:13.630Z,101821.66
2023-03-02T11:39:56.932Z,101825.00
2023-03-02T11:41:30.015Z,101822.38
2023-03-02T11:43:04.927Z,101821.47
2023-03-02T11:44:37.976Z,101819.66
2023-03-02T11:46:22.278Z,101812.72
2023-03-02T11:48:02.565Z,101823.25
2023-03-02T11:49:37.549Z,101817.06
2023-03-02T11:51:13.098Z,101808.31
2023-03-02T11:52:46.741Z,101817.13
2023-03-02T11:54:24.328Z,101825.09
2023-03-02T11:55:56.435Z,101805.91
2023-03-02T11:57:29.748Z,101811.19
2023-03-02T11:59:05.207Z,101813.78
2023-03-02T12:00:38.126Z,101810.13
2023-03-02T12:02:14.154Z,101804.78
2023-03-02T12:03:46.581Z,101804.72
2023-03-02T12:05:25.187Z,101811.56
2023-03-02T12:06:59.777Z,101809.88
2023-03-02T12:08:33.886Z,101802.16
2023-03-02T12:10:07.028Z,101796.94
2023-03-02T12:11:40.608Z,101798.59
2023-03-02T12:13:18.225Z,101796.03
2023-03-02T12:14:49.829Z,101791.72
2023-03-02T12:16:23.137Z,101800.47
2023-03-02T12:17:56.898Z,101793.38
2023-03-02T12:19:30.195Z,101790.66
2023-03-02T12:21:03.203Z,101788.88
2023-03-02T12:22:35.696Z,101778.38
2023-03-02T12:24:23.023Z,101787.94
2023-03-02T12:26:02.821Z,101780.72
2023-03-02T12:27:36.978Z,101775.34
2023-03-02T12:29:22.937Z,101773.66
2023-03-02T12:31:02.961Z,101779.75
2023-03-02T12:32:36.108Z,101769.13
2023-03-02T12:34:20.905Z,101778.50
2023-03-02T12:36:03.096Z,101771.56
2023-03-02T12:37:42.840Z,101770.63
2023-03-02T12:39:22.650Z,101762.66
2023-03-02T12:41:03.736Z,101763.44
2023-03-02T12:42:44.064Z,101760.81
2023-03-02T12:44:22.214Z,101765.09
2023-03-02T12:46:04.477Z,101754.56
2023-03-02T12:47:38.634Z,101756.31
2023-03-02T12:49:30.883Z,101756.16
2023-03-02T12:51:03.314Z,101756.72
2023-03-02T12:52:35.953Z,101745.84
2023-03-02T12:54:12.154Z,101745.44
2023-03-02T12:55:43.880Z,101743.72
2023-03-02T12:57:16.737Z,101749.66
2023-03-02T12:58:49.206Z,101736.94
2023-03-02T13:00:22.378Z,101735.81
2023-03-02T13:02:04.217Z,101747.63
2023-03-02T13:03:45.463Z,101738.38
2023-03-02T13:05:20.260Z,101731.84
2023-03-02T13:06:52.815Z,101727.81
2023-03-02T13:08:27.606Z,101716.81
2023-03-02T13:09:59.372Z,101730.94
2023-03-02T13:11:32.896Z,101728.47
2023-03-02T13:13:14.136Z,101721.50
2023-03-02T13:14:47.417Z,101714.03
2023-03-02T13:16:20.699Z,101713.78
2023-03-02T13:17:54.942Z,101705.72
2023-03-02T13:19:27.374Z,101716.06
2023-03-02T13:21:01.171Z,101708.84
2023-03-02T13:22:32.986Z,101694.31
2023-03-02T13:24:20.220Z,101703.34
2023-03-02T13:25:53.046Z,101706.91
2023-03-02T13:27:25.154Z,101698.78
2023-03-02T13:29:01.622Z,101690.69
2023-03-02T13:30:34.326Z,101684.88
2023-03-02T13:32:20.246Z,101692.94
2023-03-02T13:33:53.208Z,101691.25
2023-03-02T13:35:26.614Z,101681.09
2023-03-02T13:36:59.778Z,101692.13
2023-03-02T13:38:36.365Z,101689.88
2023-03-02T13:40:34.180Z,101688.81
2023-03-02T13:42:24.853Z,101691.69
2023-03-02T13:43:57.110Z,101686.72
2023-03-02T13:45:29.875Z,101679.75
2023-03-02T13:47:01.740Z,101674.91
2023-03-02T13:48:33.518Z,101680.13
2023-03-02T13:50:08.683Z,101670.56
2023-03-02T13:51:42.711Z,101681.63
2023-03-02T13:53:14.308Z,101681.00
2023-03-02T13:54:47.156Z,101669.06
2023-03-02T13:56:19.091Z,101673.63
2023-03-02T13:57:52.786Z,101676.44
2023-03-02T13:59:25.782Z,101674.31
2023-03-02T14:00:57.668Z,101672.78
2023-03-02T14:02:30.818Z,101668.94
2023-03-02T14:04:03.617Z,101676.50
2023-03-02T14:05:35.778Z,101669.13
2023-03-02T14:07:07.529Z,101668.75
2023-03-02T14:08:39.468Z,101670.59
2023-03-02T14:10:13.209Z,101670.88
2023-03-02T14:11:45.708Z,101657.13
2023-03-02T14:13:21.541Z,101663.50
2023-03-02T14:14:55.795Z,101661.03
2023-03-02T14:16:28.136Z,101661.50
2023-03-02T14:18:00.176Z,101655.31
2023-03-02T14:19:31.742Z,101653.22
2023-03-02T14:21:03.869Z,101662.84
2023-03-02T14:22:36.611Z,101662.44
2023-03-02T14:24:08.276Z,101651.75
2023-03-02T14:25:41.340Z,101663.28
2023-03-02T14:27:15.481Z,101655.63
2023-03-02T14:28:53.613Z,101658.38
2023-03-02T14:30:31.682Z,101663.47
2023-03-02T14:32:04.511Z,101657.28
2023-03-02T14:33:36.478Z,101655.84
2023-03-02T14:35:11.440Z,101658.69
2023-03-02T14:36:46.738Z,101653.22
2023-03-02T14:38:20.604Z,101654.94
2023-03-02T14:39:55.346Z,101658.59
2023-03-02T14:41:27.959Z,101653.28
2023-03-02T14:42:59.580Z,101648.59
2023-03-02T14:44:32.581Z,101643.53
2023-03-02T14:46:04.360Z,101640.28
2023-03-02T14:47:35.986Z,101640.44
2023-03-02T14:49:07.629Z,101646.69
2023-03-02T14:50:40.618Z,101637.56
2023-03-02T14:52:17.395Z,101637.13
2023-03-02T14:53:51.151Z,101629.22
2023-03-02T14:55:25.850Z,101643.50
2023-03-02T14:56:57.582Z,101636.06
2023-03-02T14:58:31.330Z,101637.75
2023-03-02T15:00:05.433Z,101641.44
2023-03-02T15:01:37.590Z,101629.47
2023-03-02T15:03:13.282Z,101637.78
2023-03-02T15:04:46.082Z,101649.66
2023-03-02T15:06:24.803Z,101644.59
2023-03-02T15:07:58.695Z,101645.66
2023-03-02T15:09:31.718Z,101644.22
2023-03-02T15:11:03.297Z,101642.38
2023-03-02T15:12:34.971Z,101639.78
2023-03-02T15:14:06.582Z,101642.50
2023-03-02T15:15:40.392Z,101644.44
2023-03-02T15:17:11.894Z,101646.13
2023-03-02T15:18:43.606Z,101639.13
2023-03-02T15:20:16.149Z,101640.13
2023-03-02T15:21:47.768Z,101642.94
2023-03-02T15:23:19.525Z,101635.88
2023-03-02T15:24:51.175Z,101636.66
2023-03-02T15:26:22.763Z,101640.13
2023-03-02T15:27:55.042Z,101640.94
2023-03-02T15:29:26.620Z,101635.19
2023-03-02T15:31:05.894Z,101633.63
2023-03-02T15:32:38.018Z,101634.53
2023-03-02T15:34:09.934Z,101634.81
2023-03-02T15:35:41.668Z,101633.19
2023-03-02T15:37:13.282Z,101633.34
2023-03-02T15:38:48.942Z,101633.31
2023-03-02T15:40:20.848Z,101638.53
2023-03-02T15:41:53.806Z,101636.81
2023-03-02T15:43:25.451Z,101634.41
2023-03-02T15:44:57.025Z,101644.22
2023-03-02T15:46:31.456Z,101644.28
2023-03-02T15:48:03.149Z,101644.16
2023-03-02T15:49:34.739Z,101644.16
2023-03-02T15:51:07.696Z,101639.66
2023-03-02T15:52:42.018Z,101646.59
2023-03-02T15:54:13.725Z,101641.38
2023-03-02T15:55:45.772Z,101643.22
2023-03-02T15:57:17.704Z,101631.97
2023-03-02T15:58:50.116Z,101636.50
2023-03-02T16:00:22.726Z,101631.34
2023-03-02T16:02:15.146Z,101631.53
2023-03-02T16:03:46.833Z,101642.97
2023-03-02T16:05:18.431Z,101641.13
2023-03-02T16:06:50.068Z,101648.19
2023-03-02T16:08:21.640Z,101643.00
2023-03-02T16:09:53.221Z,101648.28
2023-03-02T16:11:24.843Z,101641.41
2023-03-02T16:12:56.517Z,101653.94
2023-03-02T16:14:28.106Z,101656.78
2023-03-02T16:16:01.328Z,101648.97
2023-03-02T16:17:34.300Z,101655.31
2023-03-02T16:19:05.890Z,101651.94
2023-03-02T16:20:38.350Z,101652.94
2023-03-02T16:22:10.277Z,101652.97
2023-03-02T16:23:42.170Z,101646.00
2023-03-02T16:25:13.753Z,101652.28
2023-03-02T16:26:45.634Z,101650.41
2023-03-02T16:28:18.584Z,101653.88
2023-03-02T16:29:52.569Z,101654.78
2023-03-02T16:31:28.037Z,101662.72
2023-03-02T16:33:02.882Z,101660.94
2023-03-02T16:34:34.491Z,101665.44
2023-03-02T16:36:06.933Z,101656.72
2023-03-02T16:37:39.407Z,101661.13
2023-03-02T16:39:11.576Z,101668.41
2023-03-02T16:40:43.209Z,101670.31
2023-03-02T16:42:15.013Z,101662.66
2023-03-02T16:43:48.180Z,101665.38
2023-03-02T16:45:20.220Z,101662.91
2023-03-02T16:46:52.012Z,101677.81
2023-03-02T16:48:24.974Z,101670.06
2023-03-02T16:49:57.817Z,101670.03
2023-03-02T16:51:29.526Z,101674.34
2023-03-02T16:53:01.158Z,101683.16
2023-03-02T16:54:32.780Z,101678.88
2023-03-02T16:56:04.597Z,101680.81
2023-03-02T16:57:36.486Z,101687.97
2023-03-02T16:59:08.095Z,101676.53
2023-03-02T17:00:40.011Z,101680.06
2023-03-02T17:02:11.676Z,101691.47
2023-03-02T17:03:44.966Z,101694.13
2023-03-02T17:05:19.325Z,101696.84
2023-03-02T17:07:00.565Z,101692.47
2023-03-02T17:08:34.119Z,101688.06
2023-03-02T17:10:06.802Z,101685.56
2023-03-02T17:11:45.825Z,101683.09
2023-03-02T17:13:17.360Z,101702.50
2023-03-02T17:14:49.067Z,101697.31
2023-03-02T17:16:20.936Z,101703.47
2023-03-02T17:17:53.222Z,101705.34
2023-03-02T17:19:30.067Z,101702.78
2023-03-02T17:21:03.264Z,101706.44
2023-03-02T17:22:34.890Z,101707.38
2023-03-02T17:24:07.334Z,101708.38
2023-03-02T17:25:39.276Z,101709.34
2023-03-02T17:27:24.150Z,101711.06
2023-03-02T17:28:56.315Z,101717.09
2023-03-02T17:30:27.916Z,101718.84
2023-03-02T17:31:59.618Z,101715.38
2023-03-02T17:33:32.145Z,101718.84
2023-03-02T17:35:07.885Z,101731.28
2023-03-02T17:36:39.848Z,101725.22
2023-03-02T17:38:13.151Z,101738.31
2023-03-02T17:39:45.266Z,101737.56
2023-03-02T17:41:17.094Z,101734.22
2023-03-02T17:42:48.752Z,101743.88
2023-03-02T17:44:20.539Z,101735.22
2023-03-02T17:45:52.667Z,101748.41
2023-03-02T17:47:24.526Z,101746.69
2023-03-02T17:48:56.977Z,101746.75